Nearby METAR Reports

 

KTEB - Teterboro, New Jersey, USA
Distance from station: ENE 2mi, 4km
Updated: 04/15/2021 2:51am
Overcast
Overcast
 Wind from calm
Wind: Calm
Temperature: 57°F , 14°C
Dew Point: 52°F , 11°C
Humidity: 82%
Barometer: 29.82 inHg , 1009.8 hPa
Clouds: Overcast
Visibility: 10 miles , 16 km
Cloud details: Few Clouds 2600 ft
Overcast 5000 ft
2021/04/15 06:51 KTEB 150651Z 00000KT 10SM FEW026 OVC050 14/11 A2982 RMK AO2 SLP104 T01390106 $
KNYC - Nyc/Central Park, New York, USA
Distance from station: SE 8mi, 13km
Updated: 04/15/2021 2:51am
Overcast
Overcast
 Wind from calm
Wind: Calm
Temperature: 57°F , 14°C
Dew Point: 52°F , 11°C
Humidity: 82%
Barometer: 29.84 inHg , 1010.5 hPa
Clouds: Overcast
Visibility: 10 miles , 16 km
Cloud details: Mostly cloudy 1700 ft
Mostly cloudy 2800 ft
Overcast 4200 ft
2021/04/15 06:51 KNYC 150651Z AUTO 00000KT 10SM BKN017 BKN028 OVC042 14/11 A2984 RMK AO2 SLP095 T01440106 $
 
KCDW - Caldwell, New Jersey, USA
Distance from station: WNW 10mi, 17km
Updated: 04/15/2021 1:53am
Overcast
Overcast
 Wind from varies
Wind: varies 3 mph , 6 km/h
Temperature: 59°F , 15°C
Dew Point: 52°F , 11°C
Humidity: 77%
Barometer: 29.83 inHg , 1010.2 hPa
Clouds: Overcast
Visibility: 10 miles , 16 km
Cloud details: Overcast 6000 ft
2021/04/15 05:53 KCDW 150553Z AUTO VRB03KT 10SM OVC060 15/11 A2983 RMK AO2 SLP107 6//// T01500106 10172 20144 56014 $
KLGA - Nyc/La Guardia, New York, USA
Distance from station: ESE 12mi, 19km
Updated: 04/15/2021 2:51am
Overcast
Overcast
 Wind from NE
Wind: NE 10 mph , 17 km/h
Temperature: 52°F , 11°C
Dew Point: 46°F , 8°C
Humidity: 82%
Barometer: 29.82 inHg , 1009.8 hPa
Clouds: Overcast
Visibility: 10 miles , 16 km
Cloud details: Mostly cloudy 2300 ft
Overcast 2900 ft
2021/04/15 06:51 KLGA 150651Z 05009KT 10SM BKN023 OVC029 11/08 A2982 RMK AO2 SLP096 T01060078
 
KEWR - Newark, New Jersey, USA
Distance from station: SSW 12mi, 20km
Updated: 04/15/2021 2:51am
Overcast
Overcast
 Wind from SW
Wind: SW 8 mph , 13 km/h
Temperature: 55°F , 13°C
Dew Point: 52°F , 11°C
Humidity: 88%
Barometer: 29.81 inHg , 1009.5 hPa
Clouds: Overcast
Visibility: 10 miles , 16 km
Cloud details: Few Clouds 2000 ft
Mostly cloudy 4000 ft
Overcast 5500 ft
2021/04/15 06:51 KEWR 150651Z 23007KT 10SM FEW020 BKN040 OVC055 13/11 A2981 RMK AO2 SLP095 T01330106
KMMU - Morristown Muni, New Jersey, USA
Distance from station: WSW 18mi, 29km
Updated: 04/15/2021 2:35am
Clear
Clear
 Wind from calm
Wind: Calm
Temperature: 50°F , 10°C
Dew Point: 48°F , 9°C
Humidity: 94%
Barometer: 29.82 inHg , 1009.8 hPa
Clouds: Clear
Visibility: 10 miles , 16 km
2021/04/15 06:35 KMMU 150635Z AUTO 00000KT 10SM CLR 10/09 A2982 RMK AO2
 
KJFK - Nyc/Jfk Arpt, New York, USA
Distance from station: SE 23mi, 36km
Updated: 04/15/2021 2:51am
Mostly cloudy
Mostly cloudy
 Wind from SSW
Wind: SSW 7 mph , 11 km/h
Temperature: 54°F , 12°C
Dew Point: 50°F , 10°C
Humidity: 88%
Barometer: 29.83 inHg , 1010.2 hPa
Clouds: Mostly cloudy
Visibility: 10 miles , 16 km
Cloud details: Mostly cloudy 1600 ft
Mostly cloudy 3000 ft
2021/04/15 06:51 KJFK 150651Z 20006KT 10SM BKN016 BKN030 12/10 A2983 RMK AO2 SLP101 T01170100
KHPN - White Plains, New York, USA
Distance from station: NE 25mi, 40km
Updated: 04/15/2021 1:56am
Light drizzle, Overcast
Light drizzle, Overcast
 Wind from ESE
Wind: ESE 3 mph , 6 km/h
Temperature: 52°F , 11°C
Dew Point: 46°F , 8°C
Humidity: 82%
Barometer: 29.84 inHg , 1010.5 hPa
Summary: Light Drizzle
Clouds: Overcast
Visibility: 10 miles , 16 km
Cloud details: Mostly cloudy 1800 ft
Mostly cloudy 3300 ft
Overcast 4000 ft
2021/04/15 05:56 KHPN 150556Z 11003KT 10SM -DZ BKN018 BKN033 OVC040 11/08 A2984 RMK AO2 DZB51 SLP102 P0000 60000 T01060078 10161 20106 58010 $
 
KSMQ - Somerville, New Jersey, USA
Distance from station: WSW 34mi, 55km
Updated: 04/15/2021 1:53am
Overcast
Overcast
 Wind from calm
Wind: Calm
Temperature: 54°F , 12°C
Dew Point: 52°F , 11°C
Humidity: 94%
Barometer: 29.82 inHg , 1009.8 hPa
Clouds: Overcast
Visibility: 10 miles , 16 km
Cloud details: Overcast 3300 ft
2021/04/15 05:53 KSMQ 150553Z AUTO 00000KT 10SM OVC033 12/11 A2982 RMK AO2 SLP098 T01220106 10150 20122 58016
K12N - Andover, New Jersey, USA
Distance from station: WNW 36mi, 57km
Updated: 04/15/2021 1:54am

 Wind from calm
Wind: Calm
Temperature: 48°F , 9°C
Dew Point: 48°F , 9°C
Humidity: 100%
Barometer: 29.82 inHg , 1009.8 hPa
2021/04/15 05:54 K12N 150554Z AUTO 00000KT 09/09 A2982 RMK AO1 SLP096 T00940089 10150 20094 58017
 
KFRG - Farmingdale, New York, USA
Distance from station: ESE 36mi, 58km
Updated: 04/15/2021 2:39am
Overcast
Overcast
 Wind from SW
Wind: SW 8 mph , 13 km/h
Temperature: 54°F , 12°C
Dew Point: 50°F , 10°C
Humidity: 88%
Barometer: 29.84 inHg , 1010.5 hPa
Clouds: Overcast
Visibility: 10 miles , 16 km
Cloud details: Few Clouds 900 ft
Overcast 1600 ft
2021/04/15 06:39 KFRG 150639Z AUTO 22007KT 10SM FEW009 OVC016 12/10 A2984 RMK AO2 T01220100
KFWN - Sussex, New Jersey, USA
Distance from station: NW 37mi, 60km
Updated: 04/15/2021 2:26am
Overcast
Overcast
 Wind from calm
Wind: Calm
Temperature: 48°F , 9°C
Dew Point: 46°F , 8°C
Humidity: 94%
Barometer: 29.81 inHg , 1009.5 hPa
Clouds: Overcast
Visibility: 10 miles , 16 km
Cloud details: Overcast 1500 ft
2021/04/15 06:26 KFWN 150626Z AUTO 00000KT 10SM OVC015 09/08 A2981 RMK AO2 T00940083
 
KSWF - Newburgh/Stewart, New York, USA
Distance from station: 0 45mi, 72km
Updated: 04/15/2021 1:45am
Overcast
Overcast
 Wind from varies
Wind: varies 5 mph , 7 km/h
Temperature: 57°F , 14°C
Dew Point: 50°F , 10°C
Humidity: 77%
Barometer: 29.83 inHg , 1010.2 hPa
Clouds: Overcast
Visibility: 10 miles , 16 km
Cloud details: Few Clouds 2000 ft
Overcast 8000 ft
2021/04/15 05:45 KSWF 150545Z VRB04KT 10SM FEW020 OVC080 14/10 A2983
KMGJ - Montgomery, New York, USA
Distance from station: NNW 47mi, 75km
Updated: 04/15/2021 1:54am
Overcast
Overcast
 Wind from SSW
Wind: SSW 6 mph , 9 km/h
Temperature: 54°F , 12°C
Dew Point: 48°F , 9°C
Humidity: 82%
Barometer: 29.81 inHg , 1009.5 hPa
Clouds: Overcast
Visibility: 10 miles , 16 km
Cloud details: Few Clouds 6500 ft
Overcast 8000 ft
2021/04/15 05:54 KMGJ 150554Z AUTO 21005KT 10SM FEW065 OVC080 12/09 A2981 RMK AO2 SLP093 T01220089 10150 20122 58012
 
KBLM - Belmar/Farmdale, New Jersey, USA
Distance from station: S 47mi, 76km
Updated: 04/15/2021 1:56am
Overcast
Overcast
 Wind from SW
Wind: SW 8 mph , 13 km/h
Temperature: 55°F , 13°C
Dew Point: 52°F , 11°C
Humidity: 88%
Barometer: 29.86 inHg , 1011.2 hPa
Clouds: Overcast
Visibility: 10 miles , 16 km
Cloud details: Overcast 700 ft
2021/04/15 05:56 KBLM 150556Z AUTO 22007KT 10SM OVC007 13/11 A2986 RMK AO2 SLP113 6//// T01280111 10156 20128 58016 PNO $
KDXR - Danbury, Connecticut, USA
Distance from station: NE 47mi, 76km
Updated: 04/15/2021 2:16am
Overcast
Overcast
 Wind from ESE
Wind: ESE 5 mph , 7 km/h
Temperature: 52°F , 11°C
Dew Point: 46°F , 8°C
Humidity: 82%
Barometer: 29.85 inHg , 1010.8 hPa
Clouds: Overcast
Visibility: 10 miles , 16 km
Cloud details: Mostly cloudy 900 ft
Overcast 1800 ft
2021/04/15 06:16 KDXR 150616Z AUTO 11004KT 10SM BKN009 OVC018 11/08 A2985 RMK AO2 T01060078
 
KISP - Islip, New York, USA
Distance from station: E 52mi, 83km
Updated: 04/15/2021 2:47am
Overcast
Overcast
 Wind from SW
Wind: SW 8 mph , 13 km/h
Temperature: 54°F , 12°C
Dew Point: 52°F , 11°C
Humidity: 94%
Barometer: 29.83 inHg , 1010.2 hPa
Clouds: Overcast
Visibility: 10 miles , 16 km
Cloud details: Partly cloudy 600 ft
Overcast 3200 ft
2021/04/15 06:47 KISP 150647Z AUTO 22007KT 10SM SCT006 OVC032 12/11 A2983 RMK AO2 T01170106
KBDR - Bridgeport, Connecticut, USA
Distance from station: ENE 54mi, 87km
Updated: 04/15/2021 2:52am
Light rain, Overcast
Light rain, Overcast
 Wind from ENE
Wind: ENE 14 mph , 22 km/h
Temperature: 48°F , 9°C
Wind Chill: 42°F , 6°C
Dew Point: 46°F , 8°C
Humidity: 94%
Barometer: 29.84 inHg , 1010.5 hPa
Summary: Light rain
Clouds: Overcast
Visibility: 9 miles , 14 km
Cloud details: Mostly cloudy 500 ft
Overcast 2400 ft
2021/04/15 06:52 KBDR 150652Z AUTO 06012KT 9SM -RA BKN005 OVC024 09/08 A2984 RMK AO2 RAB0558 SLP105 P0001 T00890078
 
KTTN - Trenton, New Jersey, USA
Distance from station: SW 55mi, 88km
Updated: 04/15/2021 1:53am
Mist, Overcast
Mist, Overcast
 Wind from S
Wind: S 7 mph , 11 km/h
Temperature: 54°F , 12°C
Dew Point: 54°F , 12°C
Humidity: 100%
Barometer: 29.84 inHg , 1010.5 hPa
Summary: Mist
Clouds: Overcast
Visibility: 6 miles , 10 km
Cloud details: Few Clouds 1700 ft
Partly cloudy 2800 ft
Overcast 3400 ft
2021/04/15 05:53 KTTN 150553Z AUTO 19006KT 6SM BR FEW017 SCT028 OVC034 12/12 A2984 RMK AO2 SLP098 T01220117 10144 20122 57018 $
KPOU - Poughkeepsie, New York, USA
Distance from station: N 55mi, 89km
Updated: 04/15/2021 2:39am
Overcast
Overcast
 Wind from SE
Wind: SE 3 mph , 6 km/h
Temperature: 57°F , 14°C
Dew Point: 50°F , 10°C
Humidity: 77%
Barometer: 29.79 inHg , 1008.8 hPa
Clouds: Overcast
Visibility: 10 miles , 16 km
Cloud details: Partly cloudy 2600 ft
Partly cloudy 4500 ft
Overcast 9000 ft
2021/04/15 06:39 KPOU 150639Z AUTO 14003KT 10SM SCT026 SCT045 OVC090 14/10 A2979 RMK AO2 T01440100 TSNO
 
KNEL - Lakehurst Nas, New Jersey, USA
Distance from station: SSW 59mi, 95km
Updated: 04/15/2021 2:00am
Overcast
Overcast
 Wind from SW
Wind: SW 6 mph , 9 km/h
Temperature: 54°F , 12°C
Dew Point: 54°F , 12°C
Humidity: 100%
Barometer: 29.85 inHg , 1010.8 hPa
Clouds: Overcast
Visibility: 10 miles , 16 km
Cloud details: Overcast 800 ft
2021/04/15 06:00 KNEL 150600Z AUTO 22005KT 10SM OVC008 12/12 A2985 RMK AO2 SLP107 T01220117 10144 20122 58017 $
KWRI - Wrightst/Mcguire, New Jersey, USA
Distance from station: SSW 63mi, 102km
Updated: 04/15/2021 1:56am
Overcast
Overcast
 Wind from SSW
Wind: SSW 5 mph , 7 km/h
Temperature: 54°F , 12°C
Dew Point: 54°F , 12°C
Humidity: 100%
Barometer: 29.84 inHg , 1010.5 hPa
Clouds: Overcast
Visibility: 10 miles , 16 km
Cloud details: Overcast 700 ft
2021/04/15 05:56 KWRI 150556Z 21004KT 10SM OVC007 12/12 A2984 RMK AO2A SLP104 T01240119
 
KHWV - Shirley, New York, USA
Distance from station: E 64mi, 103km
Updated: 04/15/2021 2:14am
Overcast
Overcast
 Wind from SSW
Wind: SSW 7 mph , 11 km/h
Temperature: 54°F , 12°C
Dew Point: 48°F , 9°C
Humidity: 82%
Barometer: 29.86 inHg , 1011.2 hPa
Clouds: Overcast
Visibility: 10 miles , 16 km
Cloud details: Few Clouds 700 ft
Mostly cloudy 2000 ft
Overcast 8000 ft
2021/04/15 06:14 KHWV 150614Z AUTO 20006KT 10SM FEW007 BKN020 OVC080 12/09 A2986 RMK AO2 T01170089
KMJX - Toms River, New Jersey, USA
Distance from station: S 64mi, 104km
Updated: 04/15/2021 2:30am
Mostly cloudy
Mostly cloudy
 Wind from S
Wind: S 3 mph , 6 km/h
Temperature: 54°F , 12°C
Dew Point: 52°F , 11°C
Humidity: 94%
Barometer: 29.85 inHg , 1010.8 hPa
Clouds: Mostly cloudy
Visibility: 10 miles , 16 km
Cloud details: Mostly cloudy 1600 ft
Mostly cloudy 4200 ft
2021/04/15 06:30 KMJX 150630Z AUTO 19003KT 10SM BKN016 BKN042 12/11 A2985 RMK AO2
 
KDYL - Doylestown, Pennsylvania, USA
Distance from station: SW 65mi, 104km
Updated: 04/15/2021 2:44am
Overcast
Overcast
 Wind from S
Wind: S 3 mph , 6 km/h
Temperature: 55°F , 13°C
Dew Point: 52°F , 11°C
Humidity: 88%
Barometer: 29.81 inHg , 1009.5 hPa
Clouds: Overcast
Visibility: 10 miles , 16 km
Cloud details: Few Clouds 1100 ft
Partly cloudy 1800 ft
Overcast 2600 ft
2021/04/15 06:44 KDYL 150644Z AUTO 18003KT 10SM FEW011 SCT018 OVC026 13/11 A2981 RMK AO2 T01280106
KOXC - Oxford/Waterbury, Connecticut, USA
Distance from station: NE 65mi, 105km
Updated: 04/15/2021 2:51am
Mist, Overcast
Mist, Overcast
 Wind from ESE
Wind: ESE 7 mph , 11 km/h
Temperature: 46°F , 8°C
Wind Chill: 42°F , 6°C
Dew Point: 46°F , 8°C
Humidity: 100%
Barometer: 29.84 inHg , 1010.5 hPa
Summary: Mist
Clouds: Overcast
Visibility: 3/4 mile , 1.2 km
Cloud details: Overcast 100 ft
2021/04/15 06:51 KOXC 150651Z AUTO 12006KT 3/4SM BR OVC001 08/08 A2984 RMK AO2 SLP117 T00780078
 
KMSV - Monticello, New York, USA
Distance from station: NNW 69mi, 111km
Updated: 04/15/2021 1:56am
Overcast
Overcast
 Wind from SSE
Wind: SSE 3 mph , 6 km/h
Temperature: 48°F , 9°C
Dew Point: 46°F , 8°C
Humidity: 94%
Barometer: 29.81 inHg , 1009.5 hPa
Clouds: Overcast
Visibility: 10 miles , 16 km
Cloud details: Overcast 6000 ft
2021/04/15 05:56 KMSV 150556Z AUTO 15003KT 10SM OVC060 09/08 A2981 RMK AO2 SLP095 T00940083 10128 20094 58015 $
KHVN - New Haven/Tweed, Connecticut, USA
Distance from station: ENE 70mi, 112km
Updated: 04/15/2021 1:53am
Overcast
Overcast
 Wind from E
Wind: E 7 mph , 11 km/h
Temperature: 50°F , 10°C
Wind Chill: 47°F , 8°C
Dew Point: 48°F , 9°C
Humidity: 94%
Barometer: 29.86 inHg , 1011.2 hPa
Clouds: Overcast
Visibility: 7 miles , 11 km
Cloud details: Overcast 600 ft
2021/04/15 05:53 KHVN 150553Z AUTO 08006KT 7SM OVC006 10/09 A2986 RMK AO2 SLP111 T01000089 10106 20100 58015
 
KMPO - Mt. Pocono, Pennsylvania, USA
Distance from station: WNW 70mi, 113km
Updated: 04/15/2021 2:35am
Mist, Overcast
Mist, Overcast
 Wind from WSW
Wind: WSW 5 mph , 7 km/h
Temperature: 46°F , 8°C
Wind Chill: 44°F , 7°C
Dew Point: 45°F , 7°C
Humidity: 93%
Barometer: 29.79 inHg , 1008.8 hPa
Summary: Mist
Clouds: Overcast
Visibility: 1 1/4 miles , 2 km
Cloud details: Overcast 200 ft
2021/04/15 06:35 KMPO 150635Z AUTO 25004KT 1 1/4SM BR OVC002 08/07 A2979 RMK AO2 T00780072
KPNE - Philadelphia/Ne, Pennsylvania, USA
Distance from station: SW 72mi, 116km
Updated: 04/15/2021 2:42am
Overcast
Overcast
 Wind from SW
Wind: SW 5 mph , 7 km/h
Temperature: 55°F , 13°C
Dew Point: 55°F , 13°C
Humidity: 100%
Barometer: 29.83 inHg , 1010.2 hPa
Clouds: Overcast
Visibility: 9 miles , 14 km
Cloud details: Mostly cloudy 800 ft
Overcast 1400 ft
2021/04/15 06:42 KPNE 150642Z AUTO 22004KT 9SM BKN008 OVC014 13/13 A2983 RMK AO2 CIG 007V010 T01330133 $
 
KABE - Allentown, Pennsylvania, USA
Distance from station: W 73mi, 117km
Updated: 04/15/2021 1:51am
Overcast
Overcast
 Wind from S
Wind: S 3 mph , 6 km/h
Temperature: 54°F , 12°C
Dew Point: 50°F , 10°C
Humidity: 88%
Barometer: 29.82 inHg , 1009.8 hPa
Clouds: Overcast
Visibility: 10 miles , 16 km
Cloud details: Overcast 1700 ft
2021/04/15 05:51 KABE 150551Z AUTO 19003KT 10SM OVC017 12/10 A2982 RMK AO2 SLP098 T01220100 10144 20117 58018 $
KUKT - Quakertown Arp, Pennsylvania, USA
Distance from station: WSW 74mi, 119km
Updated: 04/15/2021 2:35am
Overcast
Overcast
 Wind from SSW
Wind: SSW 3 mph , 6 km/h
Temperature: 54°F , 12°C
Dew Point: 54°F , 12°C
Humidity: 100%
Barometer: 29.81 inHg , 1009.5 hPa
Clouds: Overcast
Visibility: 10 miles , 16 km
Cloud details: Partly cloudy 900 ft
Overcast 1800 ft
2021/04/15 06:35 KUKT 150635Z AUTO 20003KT 10SM SCT009 OVC018 12/12 A2981 RMK A01
 
KVAY - Mount Holly, New Jersey, USA
Distance from station: SSW 75mi, 120km
Updated: 04/15/2021 1:54am
Overcast
Overcast
 Wind from calm
Wind: Calm
Temperature: 55°F , 13°C
Dew Point: 52°F , 11°C
Humidity: 88%
Barometer: 29.85 inHg , 1010.8 hPa
Clouds: Overcast
Visibility: 10 miles , 16 km
Cloud details: Overcast 800 ft
2021/04/15 05:54 KVAY 150554Z AUTO 00000KT 10SM OVC008 13/11 A2985 RMK AO2 SLP108 60000 T01330111 10144 20133 56019
KXLL - Allentown Queen, Pennsylvania, USA
Distance from station: WSW 76mi, 122km
Updated: 04/15/2021 2:35am
Overcast
Overcast
 Wind from SSW
Wind: SSW 3 mph , 6 km/h
Temperature: 54°F , 12°C
Dew Point: 50°F , 10°C
Humidity: 88%
Barometer: 29.82 inHg , 1009.8 hPa
Clouds: Overcast
Visibility: 10 miles , 16 km
Cloud details: Overcast 1500 ft
2021/04/15 06:35 KXLL 150635Z AUTO 20003KT 10SM OVC015 12/10 A2982 RMK AO2
 
KFOK - Westhampton Beac, New York, USA
Distance from station: E 77mi, 124km
Updated: 04/15/2021 2:29am
Overcast
Overcast
 Wind from varies
Wind: varies 3 mph , 6 km/h
Temperature: 50°F , 10°C
Dew Point: 48°F , 9°C
Humidity: 94%
Barometer: 29.87 inHg , 1011.5 hPa
Clouds: Overcast
Visibility: 10 miles , 16 km
Cloud details: Mostly cloudy 700 ft
Overcast 1600 ft
2021/04/15 06:29 KFOK 150629Z AUTO VRB03KT 10SM BKN007 OVC016 10/09 A2987 RMK AO2 T01000089
KLOM - Philly Wings F, Pennsylvania, USA
Distance from station: SW 79mi, 128km
Updated: 04/15/2021 2:35am
Mist, Overcast
Mist, Overcast
 Wind from calm
Wind: Calm
Temperature: 54°F , 12°C
Dew Point: 52°F , 11°C
Humidity: 94%
Barometer: 29.83 inHg , 1010.2 hPa
Summary: Mist
Clouds: Overcast
Visibility: 5 miles , 8 km
Cloud details: Overcast 800 ft
2021/04/15 06:35 KLOM 150635Z AUTO 00000KT 5SM BR OVC008 12/11 A2983 RMK AO2 T01190114
 
KMMK - Meriden, Connecticut, USA
Distance from station: NE 80mi, 128km
Updated: 04/15/2021 1:53am
Overcast
Overcast
 Wind from calm
Wind: Calm
Temperature: 48°F , 9°C
Dew Point: 45°F , 7°C
Humidity: 87%
Barometer: 29.87 inHg , 1011.5 hPa
Clouds: Overcast
Visibility: 10 miles , 16 km
Cloud details: Overcast 700 ft
2021/04/15 05:53 KMMK 150553Z AUTO 00000KT 10SM OVC007 09/07 A2987 RMK AO2 SLP114 T00890067 10122 20089 58013
KPTW - Pottstown, Pennsylvania, USA
Distance from station: WSW 88mi, 141km
Updated: 04/15/2021 1:54am
Mist, Overcast
Mist, Overcast
 Wind from calm
Wind: Calm
Temperature: 52°F , 11°C
Dew Point: 52°F , 11°C
Humidity: 100%
Barometer: 29.85 inHg , 1010.8 hPa
Summary: Mist
Clouds: Overcast
Visibility: 6 miles , 10 km
Cloud details: Few Clouds 1300 ft
Overcast 2200 ft
2021/04/15 05:54 KPTW 150554Z AUTO 00000KT 6SM BR FEW013 OVC022 11/11 A2985 RMK AO2 SLP104 T01110106 10128 20111 58018
 
KSNC - Chester, Connecticut, USA
Distance from station: ENE 90mi, 146km
Updated: 04/15/2021 2:35am
Overcast
Overcast
 Wind from ESE
Wind: ESE 5 mph , 7 km/h
Temperature: 46°F , 8°C
Wind Chill: 44°F , 7°C
Dew Point: 45°F , 7°C
Humidity: 93%
Barometer: 29.86 inHg , 1011.2 hPa
Clouds: Overcast
Visibility: 10 miles , 16 km
Cloud details: Overcast 500 ft
2021/04/15 06:35 KSNC 150635Z AUTO 11004KT 10SM OVC005 08/07 A2986 RMK AO2
KPHL - Philadelphia, Pennsylvania, USA
Distance from station: SW 91mi, 146km
Updated: 04/15/2021 1:54am
Overcast
Overcast
 Wind from S
Wind: S 6 mph , 9 km/h
Temperature: 55°F , 13°C
Dew Point: 54°F , 12°C
Humidity: 94%
Barometer: 29.85 inHg , 1010.8 hPa
Clouds: Overcast
Visibility: 8 miles , 13 km
Cloud details: Mostly cloudy 900 ft
Mostly cloudy 1400 ft
Overcast 3300 ft
2021/04/15 05:54 KPHL 150554Z 18005KT 8SM BKN009 BKN014 OVC033 13/12 A2985 RMK AO2 SLP107 60001 T01330122 10144 20133 56020
 
KAVP - Avoca/Wilkes B., Pennsylvania, USA
Distance from station: WNW 91mi, 147km
Updated: 04/15/2021 1:54am
Mostly cloudy
Mostly cloudy
 Wind from W
Wind: W 7 mph , 11 km/h
Temperature: 52°F , 11°C
Dew Point: 46°F , 8°C
Humidity: 82%
Barometer: 29.81 inHg , 1009.5 hPa
Clouds: Mostly cloudy
Visibility: 10 miles , 16 km
Cloud details: Mostly cloudy 2200 ft
Mostly cloudy 2900 ft
2021/04/15 05:54 KAVP 150554Z AUTO 27006KT 10SM BKN022 BKN029 11/08 A2981 RMK AO2 SLP091 T01110078 10161 20100 56007
KHFD - Hartford/Brainar, Connecticut, USA
Distance from station: NE 96mi, 155km
Updated: 04/15/2021 2:53am
Overcast
Overcast
 Wind from E
Wind: E 3 mph , 6 km/h
Temperature: 50°F , 10°C
Dew Point: 43°F , 6°C
Humidity: 76%
Barometer: 29.86 inHg , 1011.2 hPa
Clouds: Overcast
Visibility: 10 miles , 16 km
Cloud details: Overcast 1200 ft
2021/04/15 06:53 KHFD 150653Z AUTO 09003KT 10SM OVC012 10/06 A2986 RMK AO2 SLP112 T01000061
 
KHTO - East Hampton, New York, USA
Distance from station: E 96mi, 155km
Updated: 04/15/2021 2:35am
Overcast
Overcast
 Wind from S
Wind: S 3 mph , 6 km/h
Temperature: 48°F , 9°C
Dew Point: 46°F , 8°C
Humidity: 94%
Barometer: 29.87 inHg , 1011.5 hPa
Clouds: Overcast
Visibility: 10 miles , 16 km
Cloud details: Mostly cloudy 1200 ft
Overcast 3800 ft
2021/04/15 06:35 KHTO 150635Z AUTO 17003KT 10SM BKN012 OVC038 09/08 A2987 RMK AO2 T00850080
KACY - Atlantic City, New Jersey, USA
Distance from station: SSW 99mi, 160km
Updated: 04/15/2021 1:54am
Overcast
Overcast
 Wind from SW
Wind: SW 3 mph , 6 km/h
Temperature: 54°F , 12°C
Dew Point: 50°F , 10°C
Humidity: 88%
Barometer: 29.86 inHg , 1011.2 hPa
Clouds: Overcast
Visibility: 10 miles , 16 km
Cloud details: Overcast 2400 ft
2021/04/15 05:54 KACY 150554Z AUTO 22003KT 10SM OVC024 12/10 A2986 RMK AO2 SLP112 60002 T01170100 10133 20117 58015 TSNO